createdAt,value
2024-03-12T00:01:21.286Z,27.90
2024-03-12T00:03:49.420Z,26.10
2024-03-12T00:06:17.003Z,28.02
2024-03-12T00:08:44.841Z,25.05
2024-03-12T00:11:12.681Z,30.52
2024-03-12T00:13:41.284Z,28.48
2024-03-12T00:16:08.746Z,26.52
2024-03-12T00:18:36.580Z,31.45
2024-03-12T00:21:04.255Z,31.45
2024-03-12T00:23:31.937Z,27.17
2024-03-12T00:25:59.446Z,26.00
2024-03-12T00:28:27.810Z,30.00
2024-03-12T00:30:55.826Z,27.38
2024-03-12T00:33:24.557Z,24.83
2024-03-12T00:35:52.634Z,20.35
2024-03-12T00:38:20.311Z,26.73
2024-03-12T00:40:49.669Z,25.80
2024-03-12T00:43:19.249Z,26.67
2024-03-12T00:45:47.680Z,27.10
2024-03-12T00:48:15.881Z,31.77
2024-03-12T00:50:46.761Z,27.25
2024-03-12T00:53:15.503Z,23.73
2024-03-12T00:55:44.213Z,27.90
2024-03-12T00:58:13.796Z,26.77
2024-03-12T01:00:42.242Z,25.98
2024-03-12T01:03:11.221Z,24.58
2024-03-12T01:05:39.966Z,31.20
2024-03-12T01:08:09.613Z,27.08
2024-03-12T01:10:37.629Z,29.00
2024-03-12T01:13:07.898Z,30.45
2024-03-12T01:15:36.582Z,30.08
2024-03-12T01:18:04.988Z,31.90
2024-03-12T01:20:35.731Z,35.08
2024-03-12T01:23:06.938Z,25.58
2024-03-12T01:25:38.688Z,27.63
2024-03-12T01:28:08.608Z,26.80
2024-03-12T01:30:38.071Z,31.92
2024-03-12T01:33:07.493Z,31.55
2024-03-12T01:35:40.927Z,30.63
2024-03-12T01:38:11.930Z,29.98
2024-03-12T01:40:40.708Z,32.88
2024-03-12T01:43:09.379Z,30.27
2024-03-12T01:45:37.616Z,29.92
2024-03-12T01:48:12.414Z,31.05
2024-03-12T01:50:41.110Z,30.77
2024-03-12T01:53:09.982Z,35.60
2024-03-12T01:55:45.948Z,27.75
2024-03-12T01:58:18.462Z,34.50
2024-03-12T02:00:47.198Z,32.00
2024-03-12T02:03:16.408Z,24.02
2024-03-12T02:05:43.960Z,32.58
2024-03-12T02:08:12.418Z,30.98
2024-03-12T02:10:39.801Z,36.95
2024-03-12T02:13:07.794Z,34.70
2024-03-12T02:15:35.739Z,31.40
2024-03-12T02:18:03.826Z,38.70
2024-03-12T02:20:31.322Z,40.28
2024-03-12T02:23:00.597Z,36.35
2024-03-12T02:25:28.301Z,38.83
2024-03-12T02:27:57.883Z,31.80
2024-03-12T02:30:26.087Z,39.25
2024-03-12T02:32:54.082Z,36.80
2024-03-12T02:35:21.838Z,32.85
2024-03-12T02:37:49.544Z,39.58
2024-03-12T02:40:19.867Z,37.47
2024-03-12T02:42:48.011Z,39.78
2024-03-12T02:45:22.130Z,40.78
2024-03-12T02:47:50.611Z,35.85
2024-03-12T02:50:19.643Z,36.72
2024-03-12T02:52:47.509Z,37.28
2024-03-12T02:55:15.588Z,34.00
2024-03-12T02:57:43.559Z,37.38
2024-03-12T03:00:15.582Z,33.95
2024-03-12T03:05:12.534Z,34.10
2024-03-12T03:07:41.973Z,39.28
2024-03-12T03:10:12.118Z,36.47
2024-03-12T03:12:41.144Z,38.08
2024-03-12T03:15:13.488Z,32.40
2024-03-12T03:17:44.585Z,39.78
2024-03-12T03:20:13.708Z,38.15
2024-03-12T03:22:41.908Z,41.05
2024-03-12T03:25:13.467Z,41.90
2024-03-12T03:27:41.777Z,36.85
2024-03-12T03:30:11.421Z,40.08
2024-03-12T03:32:40.693Z,45.00
2024-03-12T03:35:08.459Z,40.53
2024-03-12T03:37:41.789Z,37.22
2024-03-12T03:40:12.704Z,41.72
2024-03-12T03:42:43.132Z,46.25
2024-03-12T03:45:10.960Z,48.38
2024-03-12T03:47:38.885Z,43.20
2024-03-12T03:50:09.219Z,40.75
2024-03-12T03:52:40.534Z,40.42
2024-03-12T03:55:08.582Z,43.95
2024-03-12T03:57:36.770Z,42.25
2024-03-12T04:00:14.012Z,38.00
2024-03-12T04:02:43.091Z,44.30
2024-03-12T04:05:12.320Z,47.97
2024-03-12T04:07:42.172Z,46.17
2024-03-12T04:10:13.570Z,44.33
2024-03-12T04:12:48.636Z,40.85
2024-03-12T04:15:16.350Z,30.02
2024-03-12T04:17:45.877Z,47.80
2024-03-12T04:20:14.057Z,37.20
2024-03-12T04:22:44.974Z,48.78
2024-03-12T04:25:13.978Z,53.90
2024-03-12T04:27:41.730Z,47.28
2024-03-12T04:30:11.014Z,50.55
2024-03-12T04:32:39.326Z,49.03
2024-03-12T04:35:07.161Z,43.10
2024-03-12T04:37:34.937Z,46.75
2024-03-12T04:40:08.243Z,49.60
2024-03-12T04:42:38.280Z,48.60
2024-03-12T04:45:06.744Z,48.65
2024-03-12T04:47:36.727Z,50.20
2024-03-12T04:50:05.628Z,51.80
2024-03-12T04:52:35.193Z,49.90
2024-03-12T04:55:03.064Z,52.33
2024-03-12T04:57:30.841Z,44.15
2024-03-12T04:59:58.274Z,51.17
2024-03-12T05:02:26.042Z,52.38
2024-03-12T05:04:53.394Z,47.78
2024-03-12T05:07:21.417Z,52.75
2024-03-12T05:09:48.968Z,43.38
2024-03-12T05:12:16.623Z,51.38
2024-03-12T05:14:44.926Z,59.15
2024-03-12T05:17:12.520Z,52.60
2024-03-12T05:19:39.835Z,57.15
2024-03-12T05:22:08.435Z,54.20
2024-03-12T05:24:36.971Z,48.30
2024-03-12T05:27:05.261Z,60.42
2024-03-12T05:29:43.563Z,56.47
2024-03-12T05:32:25.132Z,54.45
2024-03-12T05:35:00.483Z,51.97
2024-03-12T05:37:42.010Z,49.75
2024-03-12T05:40:16.220Z,42.70
2024-03-12T05:43:05.664Z,42.63
2024-03-12T05:45:51.692Z,57.85
2024-03-12T05:48:19.532Z,54.47
2024-03-12T05:50:46.864Z,55.80
2024-03-12T05:53:14.847Z,55.22
2024-03-12T05:55:42.970Z,60.40
2024-03-12T05:58:13.851Z,61.10
2024-03-12T06:00:41.369Z,54.38
2024-03-12T06:03:09.078Z,56.30
2024-03-12T06:05:36.941Z,54.33
2024-03-12T06:08:06.036Z,47.75
2024-03-12T06:10:33.442Z,55.03
2024-03-12T06:13:01.279Z,52.10
2024-03-12T06:15:28.800Z,57.25
2024-03-12T06:17:56.634Z,49.10
2024-03-12T06:20:24.127Z,50.88
2024-03-12T06:22:51.768Z,60.08
2024-03-12T06:25:19.431Z,48.55
2024-03-12T06:27:47.362Z,51.83
2024-03-12T06:30:16.282Z,53.90
2024-03-12T06:32:43.720Z,50.65
2024-03-12T06:35:11.663Z,53.47
2024-03-12T06:37:39.504Z,52.92
2024-03-12T06:40:08.195Z,57.40
2024-03-12T06:42:36.866Z,51.05
2024-03-12T06:45:04.847Z,59.35
2024-03-12T06:47:38.539Z,54.65
2024-03-12T06:50:09.581Z,55.10
2024-03-12T06:52:37.613Z,62.38
2024-03-12T06:55:06.444Z,61.70
2024-03-12T06:57:35.596Z,55.25
2024-03-12T07:00:11.178Z,58.00
2024-03-12T07:02:39.732Z,52.38
2024-03-12T07:05:11.033Z,57.30
2024-03-12T07:07:45.251Z,53.25
2024-03-12T07:10:13.555Z,58.15
2024-03-12T07:12:41.142Z,49.33
2024-03-12T07:15:09.268Z,59.03
2024-03-12T07:17:36.675Z,54.10
2024-03-12T07:20:11.710Z,59.17
2024-03-12T07:22:46.414Z,54.70
2024-03-12T07:25:14.806Z,58.42
2024-03-12T07:27:43.795Z,58.28
2024-03-12T07:30:12.232Z,56.20
2024-03-12T07:32:40.189Z,51.22
2024-03-12T07:35:08.300Z,56.95
2024-03-12T07:37:45.316Z,51.13
2024-03-12T07:40:14.145Z,54.65
2024-03-12T07:42:45.396Z,52.58
2024-03-12T07:45:16.041Z,50.60
2024-03-12T07:47:43.786Z,54.95
2024-03-12T07:50:15.223Z,53.97
2024-03-12T07:52:43.124Z,55.22
2024-03-12T07:55:14.543Z,53.60
2024-03-12T07:57:41.909Z,48.53
2024-03-12T08:00:16.516Z,61.05
2024-03-12T08:02:44.240Z,51.50
2024-03-12T08:05:18.290Z,43.58
2024-03-12T08:07:46.688Z,52.63
2024-03-12T08:10:14.795Z,53.78
2024-03-12T08:12:42.354Z,54.17
2024-03-12T08:15:10.648Z,52.83
2024-03-12T08:17:39.674Z,56.92
2024-03-12T08:20:12.051Z,57.40
2024-03-12T08:22:40.337Z,56.60
2024-03-12T08:25:11.017Z,50.72
2024-03-12T08:27:41.120Z,52.30
2024-03-12T08:30:09.686Z,49.90
2024-03-12T08:32:37.805Z,51.92
2024-03-12T08:35:06.614Z,45.10
2024-03-12T08:37:38.361Z,54.58
2024-03-12T08:42:44.892Z,50.42
2024-03-12T08:45:21.239Z,41.35
2024-03-12T08:47:50.746Z,51.30
2024-03-12T08:50:18.677Z,43.75
2024-03-12T08:52:46.303Z,51.35
2024-03-12T08:55:15.379Z,52.53
2024-03-12T08:57:43.456Z,53.45
2024-03-12T09:00:15.032Z,50.97
2024-03-12T09:02:42.391Z,50.83
2024-03-12T09:05:10.986Z,57.03
2024-03-12T09:07:38.749Z,48.78
2024-03-12T09:10:12.906Z,44.53
2024-03-12T09:12:42.572Z,52.22
2024-03-12T09:15:11.286Z,54.88
2024-03-12T09:17:39.925Z,63.35
2024-03-12T09:20:14.229Z,58.50
2024-03-12T09:22:45.755Z,41.42
2024-03-12T09:25:15.708Z,49.25
2024-03-12T09:27:43.791Z,47.92
2024-03-12T09:30:12.069Z,47.55
2024-03-12T09:32:40.886Z,48.47
2024-03-12T09:35:08.975Z,48.80
2024-03-12T09:37:37.449Z,49.58
2024-03-12T09:40:09.457Z,46.45
2024-03-12T09:42:37.644Z,50.03
2024-03-12T09:45:09.838Z,52.00
2024-03-12T09:47:38.290Z,44.28
2024-03-12T09:50:12.256Z,57.90
2024-03-12T09:52:40.167Z,48.97
2024-03-12T09:55:12.788Z,47.97
2024-03-12T09:57:46.229Z,40.75
2024-03-12T10:00:24.091Z,43.40
2024-03-12T10:02:52.241Z,44.72
2024-03-12T10:05:24.429Z,44.63
2024-03-12T10:08:13.782Z,47.35
2024-03-12T10:10:44.282Z,44.13
2024-03-12T10:13:19.351Z,48.55
2024-03-12T10:16:05.351Z,44.30
2024-03-12T10:18:38.788Z,52.95
2024-03-12T10:21:08.668Z,47.33
2024-03-12T10:23:42.196Z,46.67
2024-03-12T10:26:18.243Z,47.35
2024-03-12T10:28:47.187Z,40.22
2024-03-12T10:31:16.415Z,47.40
2024-03-12T10:33:51.864Z,38.10
2024-03-12T10:36:30.811Z,49.08
2024-03-12T10:38:58.298Z,40.58
2024-03-12T10:41:26.951Z,38.10
2024-03-12T10:44:08.236Z,36.63
2024-03-12T10:46:36.975Z,47.58
2024-03-12T10:49:09.251Z,45.30
2024-03-12T10:51:40.625Z,48.20
2024-03-12T10:54:17.698Z,37.10
2024-03-12T10:56:49.390Z,38.17
2024-03-12T10:59:19.628Z,42.33
2024-03-12T11:01:49.604Z,36.58
2024-03-12T11:04:17.632Z,37.58
2024-03-12T11:06:49.594Z,39.42
2024-03-12T11:09:23.049Z,38.97
2024-03-12T11:11:51.143Z,44.95
2024-03-12T11:14:18.834Z,40.13
2024-03-12T11:16:47.440Z,38.47
2024-03-12T11:19:24.630Z,43.20
2024-03-12T11:21:53.145Z,44.28
2024-03-12T11:24:49.463Z,47.88
2024-03-12T11:27:28.610Z,46.88
2024-03-12T11:30:19.501Z,40.50
2024-03-12T11:32:52.576Z,45.92
2024-03-12T11:35:22.794Z,42.25
2024-03-12T11:38:00.309Z,38.08
2024-03-12T11:40:43.286Z,37.20
2024-03-12T11:43:14.959Z,43.47
2024-03-12T11:45:49.803Z,45.10
2024-03-12T11:48:33.347Z,38.42
2024-03-12T11:51:01.672Z,46.00
2024-03-12T11:53:34.576Z,45.42
2024-03-12T11:56:09.673Z,44.03
2024-03-12T11:58:45.979Z,44.70
2024-03-12T12:01:41.465Z,42.05
2024-03-12T12:04:12.157Z,43.08
2024-03-12T12:06:39.914Z,44.17
2024-03-12T12:09:12.332Z,48.28
2024-03-12T12:11:40.845Z,49.38
2024-03-12T12:14:11.071Z,45.97
2024-03-12T12:16:41.642Z,47.35
2024-03-12T12:19:15.913Z,45.25
2024-03-12T12:21:46.826Z,49.20
2024-03-12T12:24:15.205Z,49.95
2024-03-12T12:26:45.845Z,46.38
2024-03-12T12:29:14.948Z,51.28
2024-03-12T12:31:43.488Z,53.30
2024-03-12T12:34:12.422Z,51.28
2024-03-12T12:36:45.055Z,43.67
2024-03-12T12:39:14.581Z,55.58
2024-03-12T12:41:46.894Z,50.58
2024-03-12T12:44:22.872Z,45.58
2024-03-12T12:46:53.912Z,40.17
2024-03-12T12:49:23.777Z,43.55
2024-03-12T12:51:51.979Z,52.83
2024-03-12T12:54:23.713Z,44.97
2024-03-12T12:56:52.164Z,43.67
2024-03-12T12:59:24.858Z,45.47
2024-03-12T13:01:53.487Z,39.83
2024-03-12T13:04:26.379Z,49.05
2024-03-12T13:06:56.054Z,44.42
2024-03-12T13:09:33.681Z,44.05
2024-03-12T13:12:02.688Z,43.75
2024-03-12T13:14:31.200Z,40.85
2024-03-12T13:17:00.875Z,46.88
2024-03-12T13:19:29.316Z,45.50
2024-03-12T13:21:59.370Z,38.38
2024-03-12T13:24:27.138Z,39.67
2024-03-12T13:26:54.994Z,48.17
2024-03-12T13:29:22.361Z,51.95
2024-03-12T13:31:50.206Z,48.40
2024-03-12T13:34:17.701Z,49.47
2024-03-12T13:36:45.919Z,48.05
2024-03-12T13:39:16.483Z,43.20
2024-03-12T13:41:44.543Z,46.58
2024-03-12T13:44:13.222Z,51.97
2024-03-12T13:46:44.287Z,49.72
2024-03-12T13:49:18.767Z,45.97
2024-03-12T13:51:47.941Z,44.10
2024-03-12T13:54:16.267Z,41.13
2024-03-12T13:56:46.442Z,42.92
2024-03-12T13:59:15.439Z,53.15
2024-03-12T14:01:43.949Z,44.03
2024-03-12T14:04:12.974Z,40.35
2024-03-12T14:06:41.562Z,48.65
2024-03-12T14:09:13.118Z,42.55
2024-03-12T14:11:41.424Z,41.35
2024-03-12T14:14:12.535Z,40.50
2024-03-12T14:16:40.806Z,41.40
2024-03-12T14:19:08.307Z,36.38
2024-03-12T14:21:36.932Z,36.40
2024-03-12T14:24:04.938Z,39.10
2024-03-12T14:26:33.119Z,34.15
2024-03-12T14:29:00.315Z,32.65
2024-03-12T14:31:28.507Z,33.05
2024-03-12T14:33:56.133Z,36.67
2024-03-12T14:36:23.960Z,38.70
2024-03-12T14:38:54.615Z,38.00
2024-03-12T14:41:24.258Z,46.00
2024-03-12T14:43:51.741Z,46.22
2024-03-12T14:46:20.142Z,41.45
2024-03-12T14:48:48.159Z,46.17
2024-03-12T14:51:16.013Z,41.67
2024-03-12T14:53:43.468Z,47.63
2024-03-12T14:56:11.392Z,46.60
2024-03-12T14:58:38.788Z,41.47
2024-03-12T15:01:07.604Z,42.92
2024-03-12T15:03:36.041Z,45.13
2024-03-12T15:06:04.506Z,36.78
2024-03-12T15:08:31.807Z,41.28
2024-03-12T15:10:59.821Z,45.53
2024-03-12T15:13:27.274Z,40.08
2024-03-12T15:15:55.982Z,45.50
2024-03-12T15:18:24.711Z,47.78
2024-03-12T15:20:53.405Z,47.53
2024-03-12T15:23:20.805Z,41.33
2024-03-12T15:25:48.619Z,41.15
2024-03-12T15:28:16.572Z,40.55
2024-03-12T15:30:45.241Z,45.60
2024-03-12T15:33:13.671Z,41.58
2024-03-12T15:35:41.435Z,40.80
2024-03-12T15:38:08.957Z,47.45
2024-03-12T15:40:36.866Z,41.55
2024-03-12T15:43:06.999Z,37.22
2024-03-12T15:45:34.806Z,41.97
2024-03-12T15:48:02.251Z,42.90
2024-03-12T15:50:30.217Z,41.88
2024-03-12T15:52:58.406Z,42.17
2024-03-12T15:55:27.519Z,47.00
2024-03-12T15:57:56.052Z,40.35
2024-03-12T16:00:24.099Z,50.03
2024-03-12T16:02:55.710Z,43.53
2024-03-12T16:05:24.020Z,42.77
2024-03-12T16:07:52.759Z,52.95
2024-03-12T16:10:22.032Z,46.83
2024-03-12T16:12:49.779Z,45.55
2024-03-12T16:15:19.505Z,44.05
2024-03-12T16:17:47.175Z,45.03
2024-03-12T16:20:15.981Z,49.97
2024-03-12T16:22:44.102Z,44.88
2024-03-12T16:25:12.174Z,45.10
2024-03-12T16:27:41.037Z,48.72
2024-03-12T16:30:11.864Z,43.33
2024-03-12T16:32:41.501Z,45.70
2024-03-12T16:35:09.750Z,49.92
2024-03-12T16:37:40.647Z,47.65
2024-03-12T16:40:09.544Z,51.92
2024-03-12T16:42:37.521Z,50.90
2024-03-12T16:45:07.153Z,51.85
2024-03-12T16:47:35.139Z,55.50
2024-03-12T16:50:09.801Z,49.72
2024-03-12T16:52:38.820Z,47.25
2024-03-12T16:55:08.454Z,51.30
2024-03-12T16:57:36.202Z,44.53
2024-03-12T17:00:06.828Z,45.78
2024-03-12T17:02:43.520Z,49.72
2024-03-12T17:05:23.041Z,44.33
2024-03-12T17:07:52.044Z,49.85
2024-03-12T17:10:23.257Z,52.20
2024-03-12T17:12:51.438Z,42.85
2024-03-12T17:15:22.097Z,50.38
2024-03-12T17:17:50.870Z,49.10
2024-03-12T17:20:18.897Z,48.53
2024-03-12T17:22:47.996Z,42.92
2024-03-12T17:25:18.561Z,48.60
2024-03-12T17:27:49.061Z,42.38
2024-03-12T17:30:17.182Z,48.05
2024-03-12T17:32:47.305Z,49.55
2024-03-12T17:35:16.337Z,48.50
2024-03-12T17:37:45.065Z,51.40
2024-03-12T17:40:17.060Z,45.10
2024-03-12T17:42:48.728Z,50.55
2024-03-12T17:45:17.065Z,42.40
2024-03-12T17:47:50.811Z,49.95
2024-03-12T17:50:22.557Z,51.25
2024-03-12T17:52:51.623Z,49.00
2024-03-12T17:55:20.745Z,49.83
2024-03-12T17:57:49.306Z,47.08
2024-03-12T18:00:19.220Z,42.78
2024-03-12T18:02:47.544Z,51.40
2024-03-12T18:05:20.875Z,48.20
2024-03-12T18:07:49.772Z,54.90
2024-03-12T18:10:19.607Z,54.15
2024-03-12T18:12:48.772Z,42.55
2024-03-12T18:15:17.857Z,49.67
2024-03-12T18:17:46.384Z,45.85
2024-03-12T18:20:35.601Z,49.42
2024-03-12T18:23:02.980Z,48.58
2024-03-12T18:25:31.826Z,49.10
2024-03-12T18:27:59.399Z,53.28
2024-03-12T18:30:28.323Z,46.78
2024-03-12T18:32:56.087Z,48.28
2024-03-12T18:35:25.245Z,56.65
2024-03-12T18:37:52.842Z,72.05
2024-03-12T18:40:23.614Z,51.92
2024-03-12T18:42:52.442Z,49.10
2024-03-12T18:45:21.528Z,65.70
2024-03-12T18:47:49.914Z,54.17
2024-03-12T18:50:19.311Z,56.60
2024-03-12T18:52:47.542Z,51.85
2024-03-12T18:55:18.471Z,83.68
2024-03-12T18:57:47.319Z,74.78
2024-03-12T19:00:19.883Z,58.42
2024-03-12T19:02:49.044Z,69.68
2024-03-12T19:05:18.386Z,79.68
2024-03-12T19:07:47.488Z,72.57
2024-03-12T19:10:17.085Z,63.63
2024-03-12T19:12:45.840Z,66.45
2024-03-12T19:15:16.379Z,72.15
2024-03-12T19:17:45.822Z,64.22
2024-03-12T19:20:19.590Z,65.25
2024-03-12T19:22:50.844Z,64.25
2024-03-12T19:25:19.976Z,75.72
2024-03-12T19:27:49.827Z,80.25
2024-03-12T19:30:23.172Z,82.45
2024-03-12T19:35:22.693Z,72.03
2024-03-12T19:37:50.565Z,74.43
2024-03-12T19:40:21.292Z,87.82
2024-03-12T19:42:53.201Z,70.95
2024-03-12T19:45:29.010Z,64.72
2024-03-12T19:47:57.967Z,60.05
2024-03-12T19:50:26.819Z,68.03
2024-03-12T19:52:56.592Z,70.53
2024-03-12T19:55:26.231Z,57.90
2024-03-12T19:57:57.804Z,62.15
2024-03-12T20:00:34.422Z,56.45
2024-03-12T20:03:27.890Z,68.82
2024-03-12T20:05:58.216Z,67.45
2024-03-12T20:08:27.242Z,72.88
2024-03-12T20:10:57.448Z,79.32
2024-03-12T20:13:25.244Z,74.80
2024-03-12T20:15:53.255Z,66.15
2024-03-12T20:18:21.033Z,70.22
2024-03-12T20:20:48.751Z,68.07
2024-03-12T20:23:18.182Z,75.82
2024-03-12T20:25:47.418Z,75.53
2024-03-12T20:28:16.104Z,78.78
2024-03-12T20:30:44.317Z,74.80
2024-03-12T20:33:14.684Z,79.30
2024-03-12T20:35:44.549Z,77.15
2024-03-12T20:38:12.698Z,84.55
2024-03-12T20:40:41.342Z,92.72
2024-03-12T20:43:09.633Z,98.55
2024-03-12T20:45:40.317Z,89.40
2024-03-12T20:48:11.981Z,92.10
2024-03-12T20:50:41.223Z,87.43
2024-03-12T20:53:08.947Z,91.95
2024-03-12T20:55:45.301Z,82.00
2024-03-12T20:58:15.028Z,86.82
2024-03-12T21:00:43.361Z,95.78
2024-03-12T21:03:11.133Z,80.80
2024-03-12T21:05:40.433Z,84.45
2024-03-12T21:08:08.487Z,87.03
2024-03-12T21:10:37.957Z,88.28
2024-03-12T21:13:05.412Z,87.35
2024-03-12T21:15:33.342Z,94.35
2024-03-12T21:18:01.815Z,75.40
2024-03-12T21:20:33.836Z,90.82
2024-03-12T21:23:04.029Z,92.22
2024-03-12T21:25:33.337Z,93.65
2024-03-12T21:28:00.744Z,91.40
2024-03-12T21:30:29.356Z,91.72
2024-03-12T21:32:57.170Z,90.60
2024-03-12T21:35:25.300Z,82.63
2024-03-12T21:37:53.250Z,80.53
2024-03-12T21:40:21.260Z,81.35
2024-03-12T21:42:48.771Z,80.15
2024-03-12T21:45:19.468Z,84.80
2024-03-12T21:47:48.794Z,86.57
2024-03-12T21:50:17.819Z,82.60
2024-03-12T21:52:46.643Z,82.05
2024-03-12T21:55:15.693Z,83.60
2024-03-12T21:57:45.118Z,95.70
2024-03-12T22:00:20.624Z,96.68
2024-03-12T22:02:50.002Z,89.63
2024-03-12T22:05:21.351Z,88.47
2024-03-12T22:07:51.035Z,108.70
2024-03-12T22:10:19.341Z,121.10
2024-03-12T22:12:48.431Z,116.60
2024-03-12T22:15:20.745Z,106.35
2024-03-12T22:17:52.413Z,106.28
2024-03-12T22:20:23.839Z,95.63
2024-03-12T22:22:52.097Z,92.57
2024-03-12T22:25:27.505Z,85.88
2024-03-12T22:27:58.354Z,87.38
2024-03-12T22:30:29.698Z,99.90
2024-03-12T22:32:58.344Z,104.40
2024-03-12T22:35:27.518Z,98.82
2024-03-12T22:37:59.701Z,85.20
2024-03-12T22:40:28.587Z,94.70
2024-03-12T22:42:57.356Z,82.28
2024-03-12T22:45:26.117Z,86.65
2024-03-12T22:47:54.446Z,98.63
2024-03-12T22:50:23.959Z,94.68
2024-03-12T22:52:55.542Z,90.53
2024-03-12T22:55:27.518Z,92.60
2024-03-12T22:57:56.924Z,85.15
2024-03-12T23:00:29.599Z,87.75
2024-03-12T23:03:02.603Z,94.88
2024-03-12T23:08:07.926Z,78.63
2024-03-12T23:10:45.489Z,77.10
2024-03-12T23:13:17.743Z,93.80
2024-03-12T23:15:46.115Z,88.85
2024-03-12T23:18:13.603Z,96.90
2024-03-12T23:20:42.069Z,88.85
2024-03-12T23:23:09.260Z,95.47
2024-03-12T23:25:37.698Z,90.72
2024-03-12T23:28:05.697Z,88.47
2024-03-12T23:30:37.246Z,84.97
2024-03-12T23:33:04.961Z,80.00
2024-03-12T23:35:34.243Z,87.05
2024-03-12T23:38:03.307Z,85.65
2024-03-12T23:40:31.131Z,93.82
2024-03-12T23:42:58.576Z,86.47
2024-03-12T23:45:27.807Z,79.72
2024-03-12T23:47:55.308Z,81.70
2024-03-12T23:50:23.042Z,84.05
2024-03-12T23:52:50.377Z,82.95
2024-03-12T23:55:17.972Z,83.45
2024-03-12T23:57:45.565Z,82.55
